Time;durP1;ratioP1;P1;durP2;ratioP2;P2;SDS_P1;SDS_P2;PMS_P1;PMS_P2;Temp;Humidity;BMP_temperature;BMP_pressure;BME280_temperature;BME280_humidity;BME280_pressure;Samples;Min_cycle;Max_cycle;Signal;HPM_P1;HPM_P2
2022/05/11 00:00:56;;;;;;;6.70;2.22;;;14.30;86.60;;;;;;5079049;28;20058;-48
2022/05/11 00:03:22;;;;;;;5.78;2.75;;;14.30;86.80;;;;;;5070790;28;20051;-49
2022/05/11 00:05:48;;;;;;;7.05;2.40;;;14.30;86.60;;;;;;5087343;28;20512;-49
2022/05/11 00:08:13;;;;;;;4.35;2.03;;;14.30;86.40;;;;;;5076776;28;20116;-48
2022/05/11 00:10:39;;;;;;;4.78;1.55;;;14.30;86.40;;;;;;5086035;28;20481;-48
2022/05/11 00:13:05;;;;;;;3.97;2.40;;;14.30;86.80;;;;;;5087355;28;20032;-48
2022/05/11 00:15:31;;;;;;;3.78;2.10;;;14.30;86.80;;;;;;5068946;28;20485;-49
2022/05/11 00:17:57;;;;;;;;;;;14.30;86.60;;;;;;5081366;28;20036;-48
2022/05/11 00:20:23;;;;;;;4.10;2.05;;;14.30;86.90;;;;;;5087281;28;19924;-51
2022/05/11 00:22:57;;;;;;;9.57;2.30;;;14.30;86.60;;;;;;5069532;28;20506;-50
2022/05/11 00:25:27;;;;;;;6.18;2.22;;;14.40;86.70;;;;;;5080928;28;20375;-48
2022/05/11 00:27:54;;;;;;;3.97;2.30;;;14.40;86.70;;;;;;5081463;28;20048;-49
2022/05/11 00:30:21;;;;;;;7.85;2.15;;;14.40;87.10;;;;;;5070444;28;20135;-48
2022/05/11 00:32:47;;;;;;;4.25;2.15;;;14.40;87.20;;;;;;5085503;28;20040;-50
2022/05/11 00:35:13;;;;;;;4.78;2.25;;;14.40;87.20;;;;;;5081370;28;20036;-48
2022/05/11 00:37:39;;;;;;;4.95;2.40;;;14.40;87.50;;;;;;5070990;28;20409;-48
2022/05/11 00:40:05;;;;;;;7.55;2.17;;;14.40;88.00;;;;;;5085196;28;20068;-48
2022/05/11 00:42:31;;;;;;;7.30;2.90;;;14.40;88.20;;;;;;5071652;28;20523;-50
2022/05/11 00:44:56;;;;;;;4.90;2.63;;;14.40;88.30;;;;;;5083212;28;20119;-48
2022/05/11 00:47:27;;;;;;;5.70;2.50;;;14.40;88.70;;;;;;5091022;28;20067;-51
2022/05/11 00:50:03;;;;;;;8.63;3.05;;;14.30;88.90;;;;;;5073350;28;20044;-48
2022/05/11 00:52:38;;;;;;;7.85;2.53;;;14.30;88.90;;;;;;5084883;28;20052;-49
2022/05/11 00:55:26;;;;;;;4.80;2.38;;;14.30;89.10;;;;;;5088973;28;20040;-48
2022/05/11 00:57:57;;;;;;;5.93;2.55;;;14.30;89.80;;;;;;5066357;28;20067;-48
2022/05/11 01:00:23;;;;;;;3.65;2.40;;;14.30;89.30;;;;;;5091681;28;20518;-49
2022/05/11 01:02:55;;;;;;;8.85;2.70;;;14.30;89.30;;;;;;5081843;28;20036;-50
2022/05/11 01:05:22;;;;;;;3.70;2.30;;;14.30;89.20;;;;;;5073305;28;20061;-49
2022/05/11 01:07:49;;;;;;;7.80;3.55;;;14.30;89.50;;;;;;5092690;28;20028;-48
2022/05/11 01:10:15;;;;;;;7.97;3.05;;;14.20;89.70;;;;;;5076763;28;20359;-48
2022/05/11 01:12:43;;;;;;;8.30;2.90;;;14.20;89.80;;;;;;5077059;28;20445;-49
2022/05/11 01:15:12;;;;;;;5.50;2.30;;;14.20;90.00;;;;;;5085322;28;20036;-48
2022/05/11 01:17:39;;;;;;;3.17;2.33;;;14.20;90.10;;;;;;5071844;28;20481;-50
2022/05/11 01:20:09;;;;;;;6.20;3.05;;;14.20;90.20;;;;;;5082797;28;20377;-48
2022/05/11 01:22:50;;;;;;;5.18;3.15;;;14.20;90.40;;;;;;5075950;28;20116;-48
2022/05/11 01:25:16;;;;;;;6.20;3.15;;;14.20;90.70;;;;;;5071457;28;20033;-49
2022/05/11 01:27:44;;;;;;;5.00;2.90;;;14.20;90.90;;;;;;5088685;28;20040;-48
2022/05/11 01:30:20;;;;;;;7.00;3.40;;;14.20;91.10;;;;;;5082898;28;20124;-48
2022/05/11 01:32:49;;;;;;;2.90;2.70;;;14.20;91.50;;;;;;5073250;28;20051;-52
2022/05/11 01:35:50;;;;;;;3.75;2.80;;;14.20;91.70;;;;;;5092225;28;20062;-51
2022/05/11 01:38:44;;;;;;;8.93;2.95;;;14.20;92.00;;;;;;5075880;28;20055;-48
2022/05/11 01:41:14;;;;;;;3.03;2.83;;;14.20;92.30;;;;;;5083696;28;20055;-49
2022/05/11 01:43:40;;;;;;;4.88;2.85;;;14.20;92.50;;;;;;5088849;28;20382;-48
2022/05/11 01:46:07;;;;;;;5.88;3.05;;;14.20;92.70;;;;;;5071669;28;20036;-50
2022/05/11 01:48:33;;;;;;;4.43;2.97;;;14.20;92.90;;;;;;5085256;28;20048;-48
2022/05/11 01:50:58;;;;;;;4.20;3.90;;;14.20;93.10;;;;;;5084375;28;20516;-48
2022/05/11 01:53:25;;;;;;;6.97;3.85;;;14.20;93.30;;;;;;5072741;28;20073;-48
2022/05/11 01:55:51;;;;;;;3.88;2.90;;;14.20;93.40;;;;;;5089611;28;20035;-48
2022/05/11 01:58:17;;;;;;;9.68;3.25;;;14.20;93.40;;;;;;5081500;28;20052;-48
2022/05/11 02:00:45;;;;;;;7.10;3.20;;;14.20;93.50;;;;;;5073468;28;20037;-49
2022/05/11 02:03:11;;;;;;;3.67;2.63;;;14.20;93.60;;;;;;5091856;28;20301;-48
2022/05/11 02:08:21;;;;;;;3.35;2.33;;;14.20;93.80;;;;;;5075225;28;20048;-48
2022/05/11 02:10:47;;;;;;;6.20;2.97;;;14.20;94.00;;;;;;5076199;28;20036;-48
2022/05/11 02:13:14;;;;;;;;;;;14.20;94.00;;;;;;5091581;28;20513;-49
2022/05/11 02:15:40;;;;;;;6.30;3.20;;;14.20;94.30;;;;;;5075339;28;19923;-49
2022/05/11 02:18:06;;;;;;;2.97;2.50;;;14.20;94.20;;;;;;5075942;28;20040;-49
2022/05/11 02:20:32;;;;;;;4.90;2.28;;;14.20;94.10;;;;;;5089850;28;20050;-49
2022/05/11 02:22:58;;;;;;;3.70;1.83;;;14.30;93.90;;;;;;5074332;28;20037;-50
2022/05/11 02:25:23;;;;;;;5.65;2.40;;;14.30;93.80;;;;;;5078338;28;20086;-48
2022/05/11 02:27:51;;;;;;;4.35;1.80;;;14.30;93.70;;;;;;5089749;28;20032;-50
2022/05/11 02:30:23;;;;;;;3.85;2.17;;;14.30;93.50;;;;;;5074762;28;20032;-49
2022/05/11 02:32:48;;;;;;;6.32;2.72;;;14.30;93.50;;;;;;5081872;28;20110;-48
2022/05/11 02:35:18;;;;;;;4.75;1.88;;;14.30;93.30;;;;;;5089035;28;20115;-50
2022/05/11 02:37:53;;;;;;;5.07;2.45;;;14.30;93.30;;;;;;5050503;28;20048;-51
2022/05/11 02:40:21;;;;;;;4.80;1.83;;;14.30;93.20;;;;;;5079925;28;20485;-48
2022/05/11 02:42:47;;;;;;;4.63;2.97;;;14.30;93.20;;;;;;5084576;28;20071;-49
2022/05/11 02:45:14;;;;;;;5.20;2.00;;;14.40;93.20;;;;;;5070453;28;20430;-48
2022/05/11 02:47:41;;;;;;;3.95;2.20;;;14.30;93.20;;;;;;5085614;28;20114;-50
2022/05/11 02:50:09;;;;;;;5.30;2.17;;;14.30;93.10;;;;;;5084933;28;20040;-48
2022/05/11 02:52:35;;;;;;;4.35;1.85;;;14.30;93.10;;;;;;5070030;28;21377;-51
2022/05/11 02:55:01;;;;;;;4.28;1.80;;;14.30;93.10;;;;;;5085107;28;20036;-49
2022/05/11 02:57:27;;;;;;;4.32;1.98;;;14.30;93.20;;;;;;5070440;28;20041;-48
2022/05/11 02:59:52;;;;;;;4.70;2.15;;;14.30;93.20;;;;;;5077788;28;20043;-49
2022/05/11 03:02:20;;;;;;;5.13;2.58;;;14.30;93.30;;;;;;5089574;28;20308;-48
2022/05/11 03:04:50;;;;;;;6.07;2.58;;;14.30;93.30;;;;;;5071934;28;20028;-48
2022/05/11 03:07:16;;;;;;;6.85;2.13;;;14.30;93.30;;;;;;5077327;28;20060;-48
2022/05/11 03:09:41;;;;;;;3.75;1.83;;;14.30;93.20;;;;;;5089362;28;20032;-48
2022/05/11 03:12:08;;;;;;;4.38;2.42;;;14.30;93.30;;;;;;5073843;28;20062;-50
2022/05/11 03:14:34;;;;;;;2.78;2.33;;;14.30;93.30;;;;;;5079880;28;20055;-50
2022/05/11 03:17:00;;;;;;;5.68;3.22;;;14.30;93.30;;;;;;5088878;28;20036;-48
2022/05/11 03:19:26;;;;;;;4.43;3.20;;;14.30;93.40;;;;;;5071054;28;20036;-52
2022/05/11 03:21:52;;;;;;;5.00;2.38;;;14.30;93.40;;;;;;5079952;28;20089;-48
2022/05/11 03:24:18;;;;;;;6.90;2.72;;;14.30;93.60;;;;;;5087905;28;20036;-48
2022/05/11 03:26:43;;;;;;;;;;;14.30;93.50;;;;;;5070026;28;20047;-51
2022/05/11 03:29:11;;;;;;;6.43;3.08;;;14.30;93.90;;;;;;5081697;28;19928;-49
2022/05/11 03:31:37;;;;;;;4.15;2.90;;;14.30;93.70;;;;;;5070784;28;20727;-48
2022/05/11 03:36:48;;;;;;;4.10;2.45;;;14.30;93.80;;;;;;5069204;28;20460;-50
2022/05/11 03:39:15;;;;;;;6.82;3.20;;;14.30;93.90;;;;;;5076518;28;20111;-48
2022/05/11 03:41:42;;;;;;;7.88;3.22;;;14.30;94.10;;;;;;5070680;28;20040;-48
2022/05/11 03:44:08;;;;;;;5.20;3.13;;;14.30;94.00;;;;;;5072229;28;20444;-48
2022/05/11 03:46:33;;;;;;;6.78;2.90;;;14.30;94.10;;;;;;5080770;28;20034;-48
2022/05/11 03:48:59;;;;;;;4.40;2.67;;;14.30;94.30;;;;;;5087848;28;20032;-48
2022/05/11 03:51:24;;;;;;;5.07;3.23;;;14.30;94.40;;;;;;5069936;28;20271;-48
2022/05/11 03:53:50;;;;;;;6.47;2.92;;;14.30;94.50;;;;;;5081029;28;20371;-48
2022/05/11 03:56:18;;;;;;;5.00;3.38;;;14.30;94.60;;;;;;5085960;28;20036;-48
2022/05/11 03:58:45;;;;;;;9.18;2.67;;;14.30;94.50;;;;;;5049398;28;20049;-49
2022/05/11 04:01:11;;;;;;;7.40;3.40;;;14.30;94.80;;;;;;5075733;28;20036;-48
2022/05/11 04:03:37;;;;;;;7.13;3.60;;;14.30;94.80;;;;;;5082098;28;20131;-50
2022/05/11 04:06:02;;;;;;;9.93;4.45;;;14.20;94.80;;;;;;5069270;28;20580;-48
2022/05/11 04:08:28;;;;;;;4.20;3.20;;;14.20;94.90;;;;;;5085865;28;20036;-48
2022/05/11 04:10:53;;;;;;;8.02;3.28;;;14.20;95.00;;;;;;5083366;28;20094;-48
2022/05/11 04:13:19;;;;;;;8.00;3.75;;;14.20;95.10;;;;;;5069774;28;20119;-48
2022/05/11 04:15:49;;;;;;;6.95;3.63;;;14.20;95.30;;;;;;5083929;28;20032;-48
2022/05/11 04:18:15;;;;;;;7.20;3.33;;;14.20;95.50;;;;;;5083849;28;20059;-48
2022/05/11 04:20:40;;;;;;;5.75;3.95;;;14.30;95.50;;;;;;5082713;28;20035;-51
2022/05/11 04:23:06;;;;;;;4.35;3.80;;;14.20;95.70;;;;;;5091791;28;20063;-47
2022/05/11 04:25:32;;;;;;;9.40;3.75;;;14.20;95.90;;;;;;5072943;28;20077;-48
2022/05/11 04:27:58;;;;;;;9.20;4.07;;;14.30;96.00;;;;;;5084441;28;20078;-49
2022/05/11 04:30:26;;;;;;;7.03;3.65;;;14.30;96.20;;;;;;5080226;28;20063;-48
2022/05/11 04:32:52;;;;;;;4.25;3.60;;;14.30;96.30;;;;;;5074502;28;20062;-48
2022/05/11 04:35:18;;;;;;;8.57;5.05;;;14.30;96.40;;;;;;5090614;28;20051;-48
2022/05/11 04:37:44;;;;;;;6.60;4.75;;;14.30;96.50;;;;;;5082505;28;20580;-48
2022/05/11 04:40:11;;;;;;;7.30;4.70;;;14.30;96.60;;;;;;5074573;28;20040;-49
2022/05/11 04:42:38;;;;;;;6.20;4.15;;;14.30;96.80;;;;;;5091916;28;20076;-48
2022/05/11 04:45:04;;;;;;;9.88;4.45;;;14.30;96.60;;;;;;5082720;28;20036;-48
2022/05/11 04:47:29;;;;;;;;;;;14.30;96.70;;;;;;5079841;28;20099;-49
2022/05/11 04:49:56;;;;;;;6.55;4.70;;;14.30;96.90;;;;;;5081044;28;19916;-48
2022/05/11 04:52:22;;;;;;;7.05;4.57;;;14.30;96.80;;;;;;5086238;28;20097;-50
2022/05/11 04:54:49;;;;;;;10.00;4.50;;;14.40;97.10;;;;;;5088424;28;20039;-50
2022/05/11 04:57:18;;;;;;;7.22;4.38;;;14.40;97.30;;;;;;5073356;28;20051;-51
2022/05/11 04:59:44;;;;;;;8.57;4.05;;;14.40;97.30;;;;;;5085898;28;20127;-48
2022/05/11 05:02:19;;;;;;;6.93;4.25;;;14.40;97.30;;;;;;5085143;28;20120;-48
2022/05/11 05:04:45;;;;;;;9.75;4.80;;;14.40;97.50;;;;;;5073483;28;20032;-49
2022/05/11 05:07:11;;;;;;;;;;;14.40;97.40;;;;;;5090139;28;20051;-48
2022/05/11 05:09:37;;;;;;;12.25;4.97;;;14.40;97.60;;;;;;5078440;28;19999;-52
2022/05/11 05:12:04;;;;;;;8.73;5.38;;;14.50;97.30;;;;;;5074105;28;20083;-49
2022/05/11 05:14:29;;;;;;;11.15;6.22;;;14.50;97.10;;;;;;5091726;28;20493;-53
2022/05/11 05:17:01;;;;;;;8.93;6.50;;;14.50;97.00;;;;;;5078283;28;20051;-53
2022/05/11 05:19:27;;;;;;;8.05;6.18;;;14.60;97.10;;;;;;5076732;28;20344;-50
2022/05/11 05:21:52;;;;;;;12.38;8.93;;;14.60;97.00;;;;;;5091442;28;20044;-49
2022/05/11 05:24:18;;;;;;;18.50;7.47;;;14.60;97.10;;;;;;5076528;28;20032;-48
2022/05/11 05:26:43;;;;;;;9.67;7.33;;;14.60;96.80;;;;;;5089322;28;20647;-50
2022/05/11 05:31:53;;;;;;;9.27;5.10;;;14.70;97.10;;;;;;5070893;28;20045;-50
2022/05/11 05:34:19;;;;;;;7.97;4.85;;;14.70;97.10;;;;;;5074230;28;20502;-48
2022/05/11 05:36:44;;;;;;;8.02;5.88;;;14.70;97.10;;;;;;5076548;28;20118;-48
2022/05/11 05:39:10;;;;;;;9.23;4.75;;;14.80;97.20;;;;;;5089392;28;20442;-50
2022/05/11 05:41:36;;;;;;;8.63;4.80;;;14.80;97.20;;;;;;5070750;28;20037;-51
2022/05/11 05:44:01;;;;;;;6.80;4.32;;;14.80;97.10;;;;;;5081346;28;20032;-48
2022/05/11 05:46:27;;;;;;;4.60;4.03;;;14.80;96.80;;;;;;5088778;28;20032;-48
2022/05/11 05:48:53;;;;;;;10.02;4.18;;;14.90;97.00;;;;;;5070631;28;20123;-49
2022/05/11 05:51:20;;;;;;;5.72;4.03;;;14.90;97.00;;;;;;5084887;28;20485;-48
2022/05/11 05:53:46;;;;;;;7.72;4.47;;;14.90;97.20;;;;;;5069768;28;20084;-48
2022/05/11 05:56:13;;;;;;;8.20;5.05;;;14.90;97.10;;;;;;5069645;28;20105;-47
2022/05/11 05:58:40;;;;;;;9.85;4.75;;;15.00;97.20;;;;;;5081319;28;20040;-48
2022/05/11 06:01:06;;;;;;;8.00;4.85;;;15.00;97.30;;;;;;5083348;28;20032;-48
2022/05/11 06:03:33;;;;;;;9.07;5.25;;;15.10;97.20;;;;;;5076169;28;20040;-49
2022/05/11 06:05:59;;;;;;;8.80;5.40;;;15.10;96.90;;;;;;5070237;28;20048;-49
2022/05/11 06:08:25;;;;;;;8.23;4.82;;;15.20;97.00;;;;;;5044272;28;1033208;-48
2022/05/11 06:10:53;;;;;;;13.63;4.78;;;15.20;96.80;;;;;;5087788;28;20047;-50
2022/05/11 06:13:23;;;;;;;6.07;4.13;;;15.30;96.60;;;;;;5072417;28;20094;-48
2022/05/11 06:15:50;;;;;;;10.43;3.78;;;15.30;96.00;;;;;;5081976;28;20033;-48
2022/05/11 06:18:16;;;;;;;6.18;3.15;;;15.40;95.70;;;;;;5077889;28;20094;-48
2022/05/11 06:20:42;;;;;;;10.13;4.38;;;15.40;95.20;;;;;;5077656;28;20322;-48
2022/05/11 06:23:07;;;;;;;6.60;3.30;;;15.50;94.70;;;;;;5070590;28;20035;-48
2022/05/11 06:25:35;;;;;;;4.30;2.80;;;15.50;94.70;;;;;;5070267;28;20036;-50
2022/05/11 06:28:02;;;;;;;6.43;3.15;;;15.60;94.40;;;;;;5070435;28;20440;-50
2022/05/11 06:30:29;;;;;;;5.10;3.05;;;15.60;94.10;;;;;;5073820;28;20043;-48
2022/05/11 06:32:55;;;;;;;6.80;3.28;;;15.70;93.70;;;;;;5071597;28;20036;-48
2022/05/11 06:35:21;;;;;;;4.47;2.53;;;15.80;93.80;;;;;;5073653;28;20099;-51
2022/05/11 06:37:51;;;;;;;8.80;3.80;;;15.80;93.30;;;;;;5071479;28;20123;-49
2022/05/11 06:40:17;;;;;;;9.55;2.15;;;15.90;93.30;;;;;;5076081;28;20066;-48
2022/05/11 06:42:42;;;;;;;;;;;16.00;93.00;;;;;;5078647;28;20032;-47
2022/05/11 06:45:09;;;;;;;4.18;2.67;;;16.00;92.70;;;;;;5069850;28;19924;-48
2022/05/11 06:47:35;;;;;;;3.75;2.25;;;16.10;92.60;;;;;;5070459;28;20044;-48
2022/05/11 06:50:02;;;;;;;5.80;2.25;;;16.20;92.40;;;;;;5075589;28;20035;-49
2022/05/11 06:52:27;;;;;;;7.70;2.10;;;16.30;92.10;;;;;;5072719;28;20036;-48
2022/05/11 07:00:27;;;;;;;6.82;1.70;;;16.60;92.00;;;;;;5063690;28;20310;-51
2022/05/11 07:02:52;;;;;;;7.28;1.75;;;16.80;91.60;;;;;;5073592;28;20099;-48
2022/05/11 07:05:18;;;;;;;5.45;1.48;;;17.00;90.70;;;;;;5072401;28;20044;-52
2022/05/11 07:07:43;;;;;;;7.53;2.38;;;17.10;90.80;;;;;;5058370;28;20040;-51
2022/05/11 07:10:10;;;;;;;5.25;2.20;;;17.20;90.30;;;;;;5069730;28;20421;-52
2022/05/11 07:12:38;;;;;;;6.53;1.52;;;17.30;90.20;;;;;;5062048;28;20437;-47
2022/05/11 07:15:06;;;;;;;7.50;1.63;;;17.40;90.00;;;;;;5070405;28;20033;-48
2022/05/11 07:17:42;;;;;;;4.05;1.50;;;17.50;89.40;;;;;;5070985;28;20557;-51
2022/05/11 07:20:12;;;;;;;6.63;1.95;;;17.70;89.80;;;;;;5070304;28;20071;-50
2022/05/11 07:22:38;;;;;;;10.45;1.50;;;17.80;89.30;;;;;;5080196;28;20068;-51
2022/05/11 07:25:05;;;;;;;6.80;1.90;;;18.00;89.30;;;;;;5077596;28;20107;-52
2022/05/11 07:27:31;;;;;;;6.57;1.75;;;18.20;89.20;;;;;;5067264;28;20037;-48
2022/05/11 07:29:57;;;;;;;5.85;1.00;;;18.20;87.10;;;;;;5078582;28;20040;-51
2022/05/11 07:32:23;;;;;;;7.43;1.10;;;18.20;85.70;;;;;;5066293;28;20459;-49
2022/05/11 07:34:50;;;;;;;7.57;2.10;;;18.20;84.80;;;;;;5064970;28;20131;-52
2022/05/11 07:37:15;;;;;;;5.32;0.80;;;18.20;84.10;;;;;;5068291;28;20151;-48
2022/05/11 07:39:41;;;;;;;9.48;1.17;;;18.20;84.30;;;;;;5066840;28;20040;-52
2022/05/11 07:42:07;;;;;;;3.67;0.60;;;18.20;84.10;;;;;;5065041;28;20533;-48
2022/05/11 07:44:33;;;;;;;4.18;0.63;;;18.30;82.70;;;;;;5051236;28;20441;-51
2022/05/11 07:46:59;;;;;;;3.30;0.60;;;18.30;83.10;;;;;;5052418;28;20033;-52
2022/05/11 07:49:25;;;;;;;9.07;0.63;;;18.30;82.50;;;;;;5055760;28;20059;-50
2022/05/11 07:51:52;;;;;;;6.40;0.70;;;18.30;82.50;;;;;;5053597;28;20032;-50
2022/05/11 07:54:18;;;;;;;7.28;0.80;;;18.30;83.00;;;;;;5051374;28;20127;-49
2022/05/11 08:02:14;;;;;;;2.35;0.50;;;18.40;81.60;;;;;;5053168;28;20037;-48
2022/05/11 08:04:41;;;;;;;8.63;0.68;;;18.40;81.00;;;;;;5048496;28;20032;-52
2022/05/11 08:07:07;;;;;;;4.53;0.40;;;18.50;80.70;;;;;;5051903;28;20077;-49
2022/05/11 08:09:33;;;;;;;;;;;18.50;80.20;;;;;;5047408;28;20485;-48
2022/05/11 08:11:58;;;;;;;11.10;0.77;;;18.50;79.50;;;;;;5045257;28;19924;-51
2022/05/11 08:14:24;;;;;;;2.25;0.63;;;18.40;79.80;;;;;;5050345;28;20124;-52
2022/05/11 08:16:52;;;;;;;6.07;0.68;;;18.40;79.80;;;;;;5053351;28;20049;-50
2022/05/11 08:19:22;;;;;;;3.75;0.40;;;18.40;79.40;;;;;;5047765;28;20037;-48
2022/05/11 08:21:49;;;;;;;1.90;0.52;;;18.30;79.00;;;;;;5049605;28;20040;-48
2022/05/11 08:24:16;;;;;;;4.43;0.60;;;18.40;79.90;;;;;;5049868;28;20196;-52
2022/05/11 08:26:43;;;;;;;6.28;0.50;;;18.40;79.80;;;;;;5051924;28;20127;-48
2022/05/11 08:29:09;;;;;;;5.45;0.90;;;18.50;79.50;;;;;;5055763;28;20098;-51
2022/05/11 08:34:19;;;;;;;2.45;0.68;;;18.80;78.90;;;;;;5047508;28;20049;-54
2022/05/11 08:36:45;;;;;;;2.63;0.65;;;18.90;78.60;;;;;;5050797;28;20036;-48
2022/05/11 08:39:11;;;;;;;2.47;0.28;;;19.10;78.00;;;;;;5049778;28;20462;-48
2022/05/11 08:41:52;;;;;;;6.43;0.55;;;19.20;77.90;;;;;;5048203;28;20055;-52
2022/05/11 08:44:26;;;;;;;4.55;0.40;;;19.40;77.20;;;;;;5049760;28;20051;-49
2022/05/11 08:47:08;;;;;;;4.45;0.40;;;19.50;76.00;;;;;;5049656;28;20259;-48
2022/05/11 08:49:52;;;;;;;6.10;0.47;;;19.50;75.30;;;;;;5049441;28;20081;-51
2022/05/11 08:52:56;;;;;;;7.70;0.50;;;19.70;75.50;;;;;;5045916;28;20071;-53
2022/05/11 08:55:46;;;;;;;2.75;0.25;;;19.80;75.30;;;;;;5050229;28;20417;-48
2022/05/11 08:58:25;;;;;;;2.72;0.40;;;20.10;75.40;;;;;;5045920;28;20064;-51
2022/05/11 09:00:54;;;;;;;5.28;0.40;;;20.20;74.90;;;;;;5055796;28;20052;-50
2022/05/11 09:03:33;;;;;;;2.88;0.30;;;20.20;74.30;;;;;;5056627;28;20071;-49
2022/05/11 09:06:01;;;;;;;4.68;0.73;;;20.20;73.30;;;;;;5047618;28;20037;-53
2022/05/11 09:08:38;;;;;;;7.70;0.75;;;20.20;73.30;;;;;;5052199;28;20135;-49
2022/05/11 09:11:10;;;;;;;5.78;0.80;;;20.10;72.80;;;;;;5048389;28;20082;-54
2022/05/11 09:13:38;;;;;;;6.15;0.70;;;20.10;72.70;;;;;;5045825;28;20034;-50
2022/05/11 09:16:06;;;;;;;7.78;1.33;;;20.10;73.60;;;;;;5054740;28;20047;-49
2022/05/11 09:18:31;;;;;;;9.32;0.60;;;20.20;73.50;;;;;;5053454;28;20494;-52
2022/05/11 09:21:00;;;;;;;3.85;0.40;;;20.20;71.60;;;;;;5054492;28;20051;-50
2022/05/11 09:23:38;;;;;;;9.65;0.82;;;20.30;72.80;;;;;;5050562;28;20422;-50
2022/05/11 09:26:14;;;;;;;6.68;1.00;;;20.40;73.30;;;;;;5056823;28;20040;-51
2022/05/11 09:28:47;;;;;;;6.00;0.40;;;20.50;72.50;;;;;;5047927;28;20060;-48
2022/05/11 09:31:24;;;;;;;12.13;0.55;;;20.60;72.00;;;;;;5043276;28;20047;-53
2022/05/11 09:34:02;;;;;;;6.38;0.50;;;20.60;72.00;;;;;;5056968;28;20068;-51
2022/05/11 09:36:40;;;;;;;11.18;0.80;;;20.60;72.10;;;;;;5055992;28;20032;-48
2022/05/11 09:39:15;;;;;;;6.38;0.50;;;20.60;70.80;;;;;;5052609;28;20045;-48
2022/05/11 09:41:51;;;;;;;3.78;0.40;;;20.70;71.90;;;;;;5049946;28;20025;-50
2022/05/11 09:44:19;;;;;;;;;;;20.80;71.00;;;;;;5054046;28;20033;-51
2022/05/11 09:46:45;;;;;;;9.13;0.80;;;20.80;70.60;;;;;;5053067;28;19924;-51
2022/05/11 09:49:25;;;;;;;6.40;0.50;;;20.80;69.90;;;;;;5047922;28;20033;-48
2022/05/11 09:51:54;;;;;;;4.45;1.13;;;20.70;69.00;;;;;;5048602;28;20095;-50
2022/05/11 09:54:22;;;;;;;7.18;1.55;;;20.70;69.10;;;;;;5050782;28;20041;-51
2022/05/11 09:56:56;;;;;;;5.05;0.60;;;20.70;69.30;;;;;;5046340;28;20041;-50
2022/05/11 09:59:31;;;;;;;5.35;0.50;;;20.70;69.30;;;;;;5053142;28;20038;-48
2022/05/11 10:02:12;;;;;;;6.55;0.85;;;20.80;70.40;;;;;;5045937;28;20047;-52
2022/05/11 10:04:47;;;;;;;8.63;0.93;;;20.90;70.60;;;;;;5050468;28;20033;-52
2022/05/11 10:07:15;;;;;;;4.43;0.88;;;21.10;71.20;;;;;;5047731;28;20407;-48
2022/05/11 10:09:50;;;;;;;5.85;0.50;;;21.20;70.10;;;;;;5046794;28;20090;-48
2022/05/11 10:12:20;;;;;;;5.20;0.80;;;21.30;69.10;;;;;;5047705;28;20162;-49
2022/05/11 10:23:24;;;;;;;4.97;0.40;;;21.50;68.40;;;;;;5047752;28;20037;-49
2022/05/11 10:26:00;;;;;;;13.45;1.23;;;21.70;67.80;;;;;;5051072;28;20120;-52
2022/05/11 10:28:57;;;;;;;7.30;0.43;;;21.70;68.00;;;;;;5051167;28;20513;-50
2022/05/11 10:31:38;;;;;;;2.92;0.47;;;21.70;66.30;;;;;;5052953;28;20053;-54
2022/05/11 10:34:16;;;;;;;6.43;0.47;;;21.70;66.00;;;;;;5046773;28;20120;-52
2022/05/11 10:36:58;;;;;;;5.15;0.50;;;21.80;66.50;;;;;;5049686;28;20111;-49
2022/05/11 10:39:37;;;;;;;3.38;0.73;;;21.90;67.70;;;;;;5049783;28;20051;-48
2022/05/11 10:42:12;;;;;;;6.05;0.57;;;22.00;65.90;;;;;;5051686;28;20052;-53
2022/05/11 10:45:02;;;;;;;3.03;0.73;;;22.00;66.90;;;;;;5048859;28;20409;-53
2022/05/11 10:47:57;;;;;;;2.50;0.77;;;21.90;64.60;;;;;;5049833;28;20063;-52
2022/05/11 10:50:35;;;;;;;7.63;0.52;;;22.00;67.10;;;;;;5062437;28;20095;-52
2022/05/11 10:53:14;;;;;;;3.95;0.50;;;22.10;66.30;;;;;;5050479;28;20072;-49
2022/05/11 10:56:13;;;;;;;3.05;0.30;;;22.10;65.10;;;;;;5056532;28;20040;-50
2022/05/11 10:58:57;;;;;;;4.40;0.50;;;22.10;65.00;;;;;;5050703;28;20044;-49
2022/05/11 11:01:25;;;;;;;6.90;0.40;;;22.20;65.40;;;;;;5053337;28;20493;-51
2022/05/11 11:04:41;;;;;;;3.28;0.43;;;22.20;64.80;;;;;;5050852;28;20048;-49
2022/05/11 11:07:22;;;;;;;6.60;1.73;;;22.20;65.50;;;;;;4984235;28;20034;-49
2022/05/11 11:10:16;;;;;;;2.88;0.40;;;22.30;65.00;;;;;;5047904;28;20052;-53
2022/05/11 11:12:51;;;;;;;6.03;0.20;;;22.30;62.80;;;;;;5049263;28;20540;-51
2022/05/11 11:15:20;;;;;;;6.07;0.52;;;22.30;63.70;;;;;;5053252;28;21292;-53
2022/05/11 11:17:46;;;;;;;10.63;0.45;;;22.30;63.10;;;;;;5047206;28;20044;-51
2022/05/11 11:20:17;;;;;;;4.88;0.60;;;22.20;61.00;;;;;;5059672;28;20071;-53
2022/05/11 11:23:16;;;;;;;5.80;0.32;;;22.10;61.80;;;;;;5056362;28;20167;-53
2022/05/11 11:25:54;;;;;;;5.85;0.50;;;21.90;61.60;;;;;;5052305;28;20056;-55
2022/05/11 11:28:23;;;;;;;6.43;0.45;;;21.90;60.80;;;;;;5053304;28;20043;-54
2022/05/11 11:30:58;;;;;;;7.32;0.75;;;21.90;61.60;;;;;;5050714;28;20041;-53
2022/05/11 11:33:28;;;;;;;2.83;0.40;;;21.80;61.70;;;;;;5059203;28;20037;-54
2022/05/11 11:36:14;;;;;;;3.28;0.30;;;21.90;61.30;;;;;;5053553;28;20040;-51
2022/05/11 11:38:39;;;;;;;1.67;0.30;;;22.00;61.20;;;;;;5058184;28;20048;-52
2022/05/11 11:41:08;;;;;;;;;;;22.10;61.30;;;;;;5053570;28;20059;-49
2022/05/11 11:43:58;;;;;;;4.22;0.20;;;22.20;62.30;;;;;;5058199;28;20305;-54
2022/05/11 11:46:44;;;;;;;3.40;0.25;;;22.10;59.90;;;;;;5056014;28;20323;-54
2022/05/11 11:49:19;;;;;;;2.42;0.22;;;22.10;59.70;;;;;;5047950;28;20033;-50
2022/05/11 11:51:50;;;;;;;2.15;0.30;;;22.20;60.30;;;;;;5051825;28;20102;-51
2022/05/11 11:54:46;;;;;;;1.02;0.20;;;22.30;61.10;;;;;;5052175;28;20037;-50
2022/05/11 11:57:20;;;;;;;2.60;0.40;;;22.50;61.50;;;;;;5072234;28;20051;-53
2022/05/11 11:59:54;;;;;;;5.72;0.40;;;22.60;61.50;;;;;;5055358;28;20037;-51
2022/05/11 12:02:24;;;;;;;6.53;0.30;;;22.70;61.50;;;;;;5046946;28;20037;-53
2022/05/11 12:05:16;;;;;;;5.05;0.30;;;22.70;61.50;;;;;;5045653;28;20426;-52
2022/05/11 12:16:49;;;;;;;2.33;0.50;;;22.80;61.80;;;;;;5053092;28;20040;-49
2022/05/11 12:19:15;;;;;;;5.38;1.35;;;22.80;62.60;;;;;;5050843;28;20041;-53
2022/05/11 12:21:53;;;;;;;3.20;0.40;;;22.90;61.10;;;;;;5044769;28;20029;-49
2022/05/11 12:24:26;;;;;;;3.15;0.28;;;22.90;61.30;;;;;;5056562;28;20536;-51
2022/05/11 12:27:00;;;;;;;3.53;0.30;;;22.90;61.30;;;;;;5049874;28;20033;-51
2022/05/11 12:32:24;;;;;;;2.92;0.30;;;23.10;59.30;;;;;;5047869;28;20044;-49
2022/05/11 12:34:50;;;;;;;5.40;0.38;;;22.80;58.20;;;;;;5052469;28;20041;-49
2022/05/11 12:37:33;;;;;;;3.30;0.30;;;22.80;59.00;;;;;;5057133;28;20058;-49
2022/05/11 12:40:06;;;;;;;8.65;0.40;;;22.80;59.40;;;;;;5059982;28;20055;-53
2022/05/11 12:42:50;;;;;;;4.35;0.43;;;22.80;61.20;;;;;;5054402;28;20477;-49
2022/05/11 12:45:31;;;;;;;12.73;0.60;;;22.90;59.70;;;;;;5056680;28;20126;-51
2022/05/11 12:47:59;;;;;;;4.18;0.50;;;22.90;60.90;;;;;;5049268;28;20048;-52
2022/05/11 12:50:35;;;;;;;0.98;0.20;;;22.90;60.00;;;;;;5059773;28;20128;-49
2022/05/11 12:53:17;;;;;;;7.65;0.40;;;23.00;57.50;;;;;;5057524;28;20041;-49
2022/05/11 12:55:53;;;;;;;7.05;0.68;;;23.00;59.40;;;;;;5052620;28;20429;-49
2022/05/11 12:58:21;;;;;;;4.70;0.35;;;23.00;57.90;;;;;;5052282;28;20053;-53
2022/05/11 13:00:55;;;;;;;5.53;1.02;;;23.10;58.20;;;;;;5048182;28;20410;-49
2022/05/11 13:03:36;;;;;;;9.90;0.40;;;23.00;59.10;;;;;;5055711;28;20064;-50
2022/05/11 13:06:26;;;;;;;2.08;0.40;;;23.00;60.20;;;;;;5050789;28;20056;-49
2022/05/11 13:08:55;;;;;;;6.68;0.40;;;23.10;57.90;;;;;;5057695;28;20032;-50
2022/05/11 13:11:24;;;;;;;1.55;0.25;;;23.00;57.60;;;;;;5048089;28;20153;-53
2022/05/11 13:13:55;;;;;;;3.00;0.32;;;22.90;57.50;;;;;;5056326;28;20090;-52
2022/05/11 13:16:33;;;;;;;6.07;0.30;;;22.90;59.20;;;;;;5051952;28;20032;-52
2022/05/11 13:19:18;;;;;;;5.30;0.50;;;22.90;58.90;;;;;;5059336;28;20413;-52
2022/05/11 13:21:46;;;;;;;5.00;0.40;;;23.00;59.40;;;;;;5050955;28;20041;-50
2022/05/11 13:24:11;;;;;;;4.15;0.30;;;23.10;58.40;;;;;;5056252;28;20116;-52
2022/05/11 13:26:42;;;;;;;;;;;23.10;59.00;;;;;;5056000;28;20120;-53
2022/05/11 13:29:24;;;;;;;4.82;0.63;;;23.20;58.40;;;;;;5052971;28;19924;-52
2022/05/11 13:32:10;;;;;;;2.05;0.32;;;23.20;58.80;;;;;;5055803;28;20394;-52
2022/05/11 13:34:41;;;;;;;3.50;0.65;;;23.30;59.20;;;;;;5052150;28;20037;-52
2022/05/11 13:37:26;;;;;;;4.38;0.95;;;23.30;59.40;;;;;;5052236;28;20036;-49
2022/05/11 13:39:52;;;;;;;9.60;0.80;;;23.10;59.00;;;;;;5056373;28;20051;-49
2022/05/11 13:42:18;;;;;;;;;;;23.00;58.70;;;;;;5056880;28;20056;-50
2022/05/11 13:44:59;;;;;;;6.78;0.40;;;22.80;61.20;;;;;;5055642;28;19923;-49
2022/05/11 13:50:33;;;;;;;5.88;0.93;;;22.90;59.30;;;;;;5052122;28;20049;-49